createdAt,value
2023-03-13T00:01:10.257Z,96.60
2023-03-13T00:03:37.441Z,96.60
2023-03-13T00:06:04.661Z,96.80
2023-03-13T00:08:31.790Z,96.80
2023-03-13T00:11:25.031Z,96.90
2023-03-13T00:13:58.761Z,97.00
2023-03-13T00:16:26.143Z,97.00
2023-03-13T00:18:54.155Z,97.00
2023-03-13T00:21:22.644Z,97.00
2023-03-13T00:23:49.817Z,97.10
2023-03-13T00:26:18.461Z,97.10
2023-03-13T00:28:46.234Z,97.10
2023-03-13T00:31:17.609Z,97.10
2023-03-13T00:33:45.651Z,97.10
2023-03-13T00:36:14.051Z,97.10
2023-03-13T00:38:41.286Z,97.10
2023-03-13T00:41:12.057Z,97.20
2023-03-13T00:43:39.645Z,97.30
2023-03-13T00:46:06.956Z,97.30
2023-03-13T00:48:34.391Z,97.40
2023-03-13T00:51:02.244Z,97.40
2023-03-13T00:53:32.233Z,97.50
2023-03-13T00:56:00.483Z,97.50
2023-03-13T00:58:31.462Z,97.60
2023-03-13T01:01:06.856Z,97.90
2023-03-13T01:03:33.909Z,98.00
2023-03-13T01:06:03.991Z,97.90
2023-03-13T01:08:31.205Z,98.00
2023-03-13T01:11:02.419Z,98.00
2023-03-13T01:13:30.363Z,98.00
2023-03-13T01:15:57.906Z,98.10
2023-03-13T01:18:24.941Z,98.00
2023-03-13T01:20:53.278Z,98.30
2023-03-13T01:23:20.254Z,98.30
2023-03-13T01:25:47.785Z,98.30
2023-03-13T01:28:17.286Z,98.50
2023-03-13T01:30:44.354Z,98.50
2023-03-13T01:33:11.558Z,98.60
2023-03-13T01:35:38.593Z,98.80
2023-03-13T01:38:05.576Z,98.70
2023-03-13T01:40:38.765Z,98.70
2023-03-13T01:43:26.152Z,98.70
2023-03-13T01:46:10.166Z,99.00
2023-03-13T01:48:59.196Z,99.00
2023-03-13T01:51:28.929Z,99.20
2023-03-13T01:54:03.671Z,99.10
2023-03-13T01:56:39.262Z,99.30
2023-03-13T01:59:08.534Z,99.30
2023-03-13T02:01:35.594Z,99.40
2023-03-13T02:04:06.253Z,99.70
2023-03-13T02:06:36.352Z,99.70
2023-03-13T02:09:05.460Z,99.70
2023-03-13T02:11:44.661Z,99.70
2023-03-13T02:14:27.788Z,99.90
2023-03-13T02:17:04.152Z,99.80
2023-03-13T02:19:45.851Z,99.80
2023-03-13T02:22:13.137Z,99.80
2023-03-13T02:24:49.169Z,99.80
2023-03-13T02:27:16.461Z,99.90
2023-03-13T02:29:49.197Z,99.90
2023-03-13T02:32:18.816Z,99.90
2023-03-13T02:34:48.806Z,99.90
2023-03-13T02:37:16.642Z,99.90
2023-03-13T02:39:47.221Z,99.90
2023-03-13T02:42:15.813Z,99.90
2023-03-13T02:44:44.589Z,99.90
2023-03-13T02:47:13.200Z,99.90
2023-03-13T02:49:40.305Z,99.90
2023-03-13T02:52:26.399Z,99.90
2023-03-13T02:55:03.173Z,99.90
2023-03-13T02:57:31.935Z,99.90
2023-03-13T03:00:01.715Z,99.90
2023-03-13T03:02:31.216Z,99.90
2023-03-13T03:04:59.596Z,99.90
2023-03-13T03:07:29.274Z,99.90
2023-03-13T03:09:56.499Z,99.90
2023-03-13T03:12:23.504Z,99.90
2023-03-13T03:14:50.581Z,99.90
2023-03-13T03:17:18.188Z,99.90
2023-03-13T03:19:51.277Z,99.90
2023-03-13T03:22:20.773Z,99.90
2023-03-13T03:24:48.935Z,99.90
2023-03-13T03:27:16.121Z,99.90
2023-03-13T03:29:50.893Z,99.90
2023-03-13T03:32:18.104Z,99.90
2023-03-13T03:34:45.002Z,99.90
2023-03-13T03:37:14.369Z,99.90
2023-03-13T03:39:41.370Z,99.90
2023-03-13T03:42:09.731Z,99.90
2023-03-13T03:44:37.759Z,99.90
2023-03-13T03:47:08.424Z,99.90
2023-03-13T03:49:39.814Z,99.90
2023-03-13T03:52:09.414Z,99.90
2023-03-13T03:54:39.799Z,99.90
2023-03-13T03:57:06.906Z,99.90
2023-03-13T03:59:34.817Z,99.90
2023-03-13T04:02:04.461Z,99.90
2023-03-13T04:04:32.904Z,99.90
2023-03-13T04:07:06.018Z,99.90
2023-03-13T04:09:36.927Z,99.90
2023-03-13T04:12:06.288Z,99.90
2023-03-13T04:14:37.596Z,99.90
2023-03-13T04:17:07.569Z,99.90
2023-03-13T04:19:34.691Z,99.90
2023-03-13T04:22:01.554Z,99.90
2023-03-13T04:24:29.810Z,99.90
2023-03-13T04:26:59.790Z,99.90
2023-03-13T04:29:28.710Z,99.90
2023-03-13T04:32:04.026Z,99.90
2023-03-13T04:35:03.143Z,99.90
2023-03-13T04:37:48.816Z,99.90
2023-03-13T04:40:29.496Z,99.90
2023-03-13T04:43:06.696Z,99.90
2023-03-13T04:46:00.988Z,99.90
2023-03-13T04:48:40.857Z,99.90
2023-03-13T04:51:31.775Z,99.90
2023-03-13T04:54:13.944Z,99.90
2023-03-13T04:56:50.893Z,99.90
2023-03-13T04:59:39.400Z,99.90
2023-03-13T05:02:32.600Z,99.90
2023-03-13T05:05:02.252Z,99.90
2023-03-13T05:07:47.771Z,99.90
2023-03-13T05:10:20.608Z,99.90
2023-03-13T05:13:03.056Z,99.90
2023-03-13T05:15:53.488Z,99.90
2023-03-13T05:18:46.787Z,99.90
2023-03-13T05:21:35.453Z,99.90
2023-03-13T05:24:17.638Z,99.90
2023-03-13T05:26:53.910Z,99.90
2023-03-13T05:29:48.865Z,99.90
2023-03-13T05:32:25.663Z,99.90
2023-03-13T05:35:01.401Z,99.90
2023-03-13T05:37:56.396Z,99.90
2023-03-13T05:41:01.563Z,99.90
2023-03-13T05:43:45.766Z,99.90
2023-03-13T05:46:31.111Z,99.90
2023-03-13T05:49:20.937Z,99.90
2023-03-13T05:52:06.399Z,99.90
2023-03-13T05:54:38.841Z,99.90
2023-03-13T05:57:29.198Z,99.90
2023-03-13T06:00:07.414Z,99.90
2023-03-13T06:02:45.345Z,99.90
2023-03-13T06:05:18.319Z,99.90
2023-03-13T06:07:46.326Z,99.90
2023-03-13T06:10:13.201Z,99.90
2023-03-13T06:12:40.177Z,99.90
2023-03-13T06:15:12.204Z,99.90
2023-03-13T06:18:02.668Z,99.90
2023-03-13T06:20:31.347Z,99.90
2023-03-13T06:22:58.640Z,99.90
2023-03-13T06:25:26.024Z,99.90
2023-03-13T06:27:52.899Z,99.90
2023-03-13T06:30:19.841Z,99.90
2023-03-13T06:32:46.935Z,99.90
2023-03-13T06:35:14.029Z,99.90
2023-03-13T06:37:40.776Z,99.90
2023-03-13T06:40:07.801Z,99.90
2023-03-13T06:42:34.555Z,99.90
2023-03-13T06:45:04.085Z,99.90
2023-03-13T06:47:32.524Z,99.90
2023-03-13T06:49:59.550Z,99.90
2023-03-13T06:52:37.404Z,99.90
2023-03-13T06:55:08.644Z,99.90
2023-03-13T06:57:35.811Z,99.90
2023-03-13T07:00:02.733Z,99.90
2023-03-13T07:02:29.631Z,99.90
2023-03-13T07:04:56.473Z,99.90
2023-03-13T07:07:31.874Z,99.90
2023-03-13T07:09:59.503Z,99.90
2023-03-13T07:12:26.593Z,99.90
2023-03-13T07:14:53.630Z,99.90
2023-03-13T07:17:20.550Z,99.90
2023-03-13T07:19:47.416Z,99.90
2023-03-13T07:22:14.218Z,99.90
2023-03-13T07:24:41.229Z,99.90
2023-03-13T07:27:08.430Z,99.90
2023-03-13T07:29:35.473Z,99.90
2023-03-13T07:32:02.475Z,99.90
2023-03-13T07:34:29.486Z,99.90
2023-03-13T07:36:56.560Z,99.90
2023-03-13T07:39:23.581Z,99.90
2023-03-13T07:41:50.415Z,99.90
2023-03-13T07:44:18.354Z,99.90
2023-03-13T07:46:46.096Z,99.90
2023-03-13T07:49:13.481Z,99.90
2023-03-13T07:51:44.014Z,99.80
2023-03-13T07:54:11.974Z,99.80
2023-03-13T07:56:39.533Z,99.70
2023-03-13T07:59:06.943Z,99.60
2023-03-13T08:01:34.196Z,99.60
2023-03-13T08:04:01.634Z,99.70
2023-03-13T08:06:33.442Z,99.60
2023-03-13T08:09:01.471Z,99.50
2023-03-13T08:11:29.770Z,99.60
2023-03-13T08:13:59.685Z,99.70
2023-03-13T08:16:28.039Z,99.70
2023-03-13T08:18:55.932Z,99.80
2023-03-13T08:21:24.378Z,99.80
2023-03-13T08:23:55.323Z,99.90
2023-03-13T08:26:22.978Z,99.90
2023-03-13T08:28:52.698Z,99.90
2023-03-13T08:31:24.066Z,99.90
2023-03-13T08:33:51.683Z,99.90
2023-03-13T08:36:18.824Z,99.90
2023-03-13T08:38:49.565Z,99.90
2023-03-13T08:41:17.821Z,99.90
2023-03-13T08:43:48.147Z,99.80
2023-03-13T08:46:17.241Z,99.70
2023-03-13T08:48:45.403Z,99.70
2023-03-13T08:51:13.545Z,99.80
2023-03-13T08:53:41.576Z,99.90
2023-03-13T08:56:09.224Z,99.90
2023-03-13T08:58:36.645Z,99.90
2023-03-13T09:01:22.996Z,99.90
2023-03-13T09:03:50.111Z,99.90
2023-03-13T09:06:17.156Z,99.90
2023-03-13T09:08:47.657Z,99.90
2023-03-13T09:11:18.681Z,99.80
2023-03-13T09:13:47.235Z,99.60
2023-03-13T09:16:15.512Z,99.40
2023-03-13T09:18:42.913Z,99.10
2023-03-13T09:21:13.797Z,98.90
2023-03-13T09:23:43.203Z,98.50
2023-03-13T09:26:13.298Z,98.30
2023-03-13T09:28:42.281Z,98.10
2023-03-13T09:31:14.668Z,98.00
2023-03-13T09:33:42.619Z,97.90
2023-03-13T09:36:10.032Z,97.20
2023-03-13T09:38:37.871Z,96.90
2023-03-13T09:41:16.871Z,96.90
2023-03-13T09:43:46.860Z,96.60
2023-03-13T09:46:18.592Z,96.50
2023-03-13T09:48:47.487Z,95.90
2023-03-13T09:51:29.342Z,95.90
2023-03-13T09:53:56.345Z,95.40
2023-03-13T09:56:25.275Z,95.30
2023-03-13T09:58:55.002Z,95.40
2023-03-13T10:01:26.310Z,95.30
2023-03-13T10:04:21.925Z,95.20
2023-03-13T10:06:49.101Z,94.90
2023-03-13T10:09:23.039Z,95.00
2023-03-13T10:12:03.222Z,94.90
2023-03-13T10:14:50.554Z,94.50
2023-03-13T10:17:20.582Z,94.40
2023-03-13T10:19:51.637Z,94.30
2023-03-13T10:22:19.491Z,94.10
2023-03-13T10:24:50.994Z,94.10
2023-03-13T10:27:18.076Z,93.70
2023-03-13T10:29:44.960Z,93.60
2023-03-13T10:32:16.629Z,93.40
2023-03-13T10:34:52.824Z,93.60
2023-03-13T10:37:21.562Z,93.10
2023-03-13T10:39:48.543Z,93.00
2023-03-13T10:42:21.358Z,92.70
2023-03-13T10:44:48.428Z,92.40
2023-03-13T10:47:15.966Z,92.10
2023-03-13T10:49:47.507Z,91.90
2023-03-13T10:52:31.662Z,91.90
2023-03-13T10:55:06.613Z,91.60
2023-03-13T10:57:37.015Z,91.50
2023-03-13T11:00:23.042Z,91.40
2023-03-13T11:02:52.475Z,90.90
2023-03-13T11:05:34.998Z,90.90
2023-03-13T11:08:11.357Z,90.40
2023-03-13T11:10:50.809Z,90.30
2023-03-13T11:13:36.506Z,88.90
2023-03-13T11:16:45.854Z,89.50
2023-03-13T11:19:24.897Z,88.80
2023-03-13T11:21:58.156Z,88.20
2023-03-13T11:24:32.319Z,87.60
2023-03-13T11:27:04.937Z,87.10
2023-03-13T11:29:45.077Z,86.30
2023-03-13T11:32:45.055Z,85.50
2023-03-13T11:35:41.655Z,84.20
2023-03-13T11:38:13.241Z,84.20
2023-03-13T11:40:48.919Z,84.20
2023-03-13T11:43:25.430Z,83.50
2023-03-13T11:45:56.343Z,83.70
2023-03-13T11:48:42.049Z,83.70
2023-03-13T11:51:23.896Z,83.90
2023-03-13T11:53:59.997Z,83.50
2023-03-13T11:56:56.168Z,83.40
2023-03-13T11:59:23.305Z,82.90
2023-03-13T12:01:55.663Z,81.50
2023-03-13T12:04:22.632Z,79.50
2023-03-13T12:06:56.714Z,80.00
2023-03-13T12:09:29.182Z,79.50
2023-03-13T12:12:03.426Z,79.00
2023-03-13T12:14:42.728Z,78.90
2023-03-13T12:17:16.475Z,79.20
2023-03-13T12:19:52.926Z,77.80
2023-03-13T12:22:34.078Z,75.70
2023-03-13T12:25:09.880Z,75.60
2023-03-13T12:27:41.191Z,76.00
2023-03-13T12:30:19.851Z,75.70
2023-03-13T12:32:56.290Z,75.10
2023-03-13T12:35:35.604Z,75.20
2023-03-13T12:38:15.524Z,76.00
2023-03-13T12:41:03.747Z,76.00
2023-03-13T12:43:34.700Z,76.00
2023-03-13T12:46:08.693Z,76.50
2023-03-13T12:48:37.344Z,76.70
2023-03-13T12:51:18.415Z,77.20
2023-03-13T12:53:50.724Z,77.60
2023-03-13T12:56:29.952Z,77.40
2023-03-13T12:59:03.121Z,76.80
2023-03-13T13:01:49.103Z,77.10
2023-03-13T13:04:30.528Z,76.00
2023-03-13T13:06:59.772Z,73.80
2023-03-13T13:09:28.078Z,73.10
2023-03-13T13:11:56.091Z,72.70
2023-03-13T13:14:23.042Z,73.00
2023-03-13T13:17:24.112Z,73.40
2023-03-13T13:19:51.498Z,73.50
2023-03-13T13:22:36.866Z,73.60
2023-03-13T13:25:12.743Z,73.40
2023-03-13T13:27:39.613Z,74.10
2023-03-13T13:30:18.804Z,73.60
2023-03-13T13:32:46.730Z,73.70
2023-03-13T13:35:34.226Z,74.10
2023-03-13T13:38:19.511Z,73.90
2023-03-13T13:41:05.872Z,72.10
2023-03-13T13:43:34.330Z,71.70
2023-03-13T13:46:01.101Z,71.70
2023-03-13T13:48:28.693Z,70.30
2023-03-13T13:51:11.355Z,70.30
2023-03-13T13:53:47.459Z,69.50
2023-03-13T13:56:33.336Z,69.50
2023-03-13T13:59:15.563Z,68.70
2023-03-13T14:01:46.056Z,66.70
2023-03-13T14:04:19.831Z,67.30
2023-03-13T14:06:51.171Z,67.40
2023-03-13T14:09:47.369Z,67.50
2023-03-13T14:12:29.582Z,66.70
2023-03-13T14:15:19.267Z,66.90
2023-03-13T14:18:00.216Z,65.80
2023-03-13T14:20:29.523Z,66.40
2023-03-13T14:23:00.714Z,66.30
2023-03-13T14:25:33.987Z,66.00
2023-03-13T14:28:05.644Z,65.50
2023-03-13T14:30:32.477Z,65.90
2023-03-13T14:32:59.373Z,66.30
2023-03-13T14:35:26.347Z,67.00
2023-03-13T14:37:54.403Z,67.20
2023-03-13T14:40:23.593Z,67.20
2023-03-13T14:42:52.145Z,67.10
2023-03-13T14:45:30.192Z,67.70
2023-03-13T14:48:01.947Z,67.50
2023-03-13T14:50:28.934Z,67.80
2023-03-13T14:52:59.685Z,68.70
2023-03-13T14:55:36.246Z,67.80
2023-03-13T14:58:26.235Z,67.70
2023-03-13T15:00:54.816Z,67.70
2023-03-13T15:03:25.470Z,68.90
2023-03-13T15:06:07.358Z,68.20
2023-03-13T15:08:43.950Z,68.20
2023-03-13T15:11:30.575Z,67.90
2023-03-13T15:14:00.459Z,68.20
2023-03-13T15:16:30.163Z,68.30
2023-03-13T15:18:59.923Z,68.00
2023-03-13T15:21:29.069Z,68.20
2023-03-13T15:24:21.417Z,68.50
2023-03-13T15:26:51.222Z,68.70
2023-03-13T15:29:18.358Z,68.70
2023-03-13T15:31:45.313Z,68.80
2023-03-13T15:34:13.282Z,69.20
2023-03-13T15:36:41.779Z,69.40
2023-03-13T15:39:20.506Z,69.30
2023-03-13T15:41:47.564Z,69.80
2023-03-13T15:44:14.581Z,69.50
2023-03-13T15:46:58.642Z,69.50
2023-03-13T15:49:25.675Z,70.30
2023-03-13T15:51:57.780Z,69.60
2023-03-13T15:54:29.849Z,69.40
2023-03-13T15:56:56.807Z,69.40
2023-03-13T15:59:23.704Z,69.70
2023-03-13T16:01:51.527Z,69.90
2023-03-13T16:04:18.545Z,70.00
2023-03-13T16:06:45.799Z,70.30
2023-03-13T16:09:12.958Z,70.50
2023-03-13T16:11:39.964Z,70.80
2023-03-13T16:14:06.783Z,70.90
2023-03-13T16:16:40.605Z,70.90
2023-03-13T16:19:09.398Z,70.70
2023-03-13T16:21:36.550Z,70.90
2023-03-13T16:24:03.632Z,71.20
2023-03-13T16:26:31.593Z,71.30
2023-03-13T16:29:01.646Z,71.70
2023-03-13T16:31:30.350Z,72.00
2023-03-13T16:33:57.947Z,72.30
2023-03-13T16:36:30.360Z,72.50
2023-03-13T16:38:57.859Z,72.70
2023-03-13T16:41:26.474Z,72.80
2023-03-13T16:43:53.696Z,73.00
2023-03-13T16:46:21.848Z,73.20
2023-03-13T16:48:49.881Z,73.60
2023-03-13T16:51:17.609Z,73.90
2023-03-13T16:53:47.602Z,74.30
2023-03-13T16:56:20.605Z,74.60
2023-03-13T16:58:48.044Z,75.00
2023-03-13T17:01:15.205Z,75.20
2023-03-13T17:03:42.168Z,75.60
2023-03-13T17:06:13.810Z,76.00
2023-03-13T17:08:41.794Z,76.30
2023-03-13T17:11:09.668Z,76.70
2023-03-13T17:13:36.577Z,77.00
2023-03-13T17:16:03.578Z,77.20
2023-03-13T17:18:31.550Z,77.50
2023-03-13T17:21:01.803Z,77.60
2023-03-13T17:23:28.717Z,77.80
2023-03-13T17:25:55.487Z,78.10
2023-03-13T17:28:22.519Z,78.30
2023-03-13T17:30:49.379Z,78.60
2023-03-13T17:33:16.233Z,78.90
2023-03-13T17:35:43.062Z,79.20
2023-03-13T17:38:14.439Z,79.40
2023-03-13T17:40:41.971Z,79.60
2023-03-13T17:43:09.902Z,79.80
2023-03-13T17:45:40.364Z,80.00
2023-03-13T17:51:41.524Z,80.40
2023-03-13T17:54:09.004Z,80.70
2023-03-13T17:56:39.087Z,81.00
2023-03-13T17:59:16.718Z,81.20
2023-03-13T18:01:44.417Z,81.40
2023-03-13T18:04:16.470Z,81.80
2023-03-13T18:06:44.489Z,81.90
2023-03-13T18:09:15.742Z,82.10
2023-03-13T18:11:42.748Z,82.20
2023-03-13T18:14:10.074Z,82.30
2023-03-13T18:17:03.121Z,82.50
2023-03-13T18:19:30.920Z,82.60
2023-03-13T18:21:57.800Z,82.80
2023-03-13T18:24:24.710Z,82.80
2023-03-13T18:26:51.592Z,82.90
2023-03-13T18:29:25.903Z,83.00
2023-03-13T18:31:58.709Z,83.10
2023-03-13T18:34:26.171Z,83.30
2023-03-13T18:36:55.453Z,83.60
2023-03-13T18:39:22.734Z,83.80
2023-03-13T18:41:52.676Z,84.00
2023-03-13T18:44:21.137Z,84.20
2023-03-13T18:46:48.142Z,84.40
2023-03-13T18:49:18.643Z,84.40
2023-03-13T18:51:45.834Z,84.40
2023-03-13T18:54:13.862Z,84.40
2023-03-13T18:56:44.226Z,84.40
2023-03-13T18:59:19.632Z,85.20
2023-03-13T19:01:50.043Z,84.80
2023-03-13T19:04:17.493Z,85.00
2023-03-13T19:06:46.032Z,85.30
2023-03-13T19:09:41.037Z,85.40
2023-03-13T19:12:04.084Z,85.60
2023-03-13T19:14:31.035Z,85.80
2023-03-13T19:17:01.560Z,86.00
2023-03-13T19:19:32.167Z,86.20
2023-03-13T19:21:59.338Z,86.30
2023-03-13T19:24:26.862Z,86.50
2023-03-13T19:27:01.169Z,86.60
2023-03-13T19:29:28.724Z,86.50
2023-03-13T19:31:55.763Z,86.60
2023-03-13T19:34:22.967Z,86.70
2023-03-13T19:36:49.787Z,86.80
2023-03-13T19:39:20.537Z,87.00
2023-03-13T19:41:48.517Z,87.00
2023-03-13T19:44:16.089Z,87.00
2023-03-13T19:46:45.436Z,87.00
2023-03-13T19:49:16.807Z,87.10
2023-03-13T19:51:46.794Z,87.30
2023-03-13T19:54:13.992Z,87.80
2023-03-13T19:56:45.763Z,88.20
2023-03-13T19:59:23.739Z,88.60
2023-03-13T20:01:53.608Z,88.90
2023-03-13T20:04:20.568Z,89.30
2023-03-13T20:06:47.617Z,89.50
2023-03-13T20:09:16.736Z,89.80
2023-03-13T20:11:43.984Z,90.00
2023-03-13T20:14:13.768Z,90.10
2023-03-13T20:16:40.748Z,90.00
2023-03-13T20:19:07.759Z,90.00
2023-03-13T20:21:35.945Z,90.00
2023-03-13T20:24:03.265Z,90.00
2023-03-13T20:26:32.641Z,90.00
2023-03-13T20:29:02.553Z,90.00
2023-03-13T20:31:33.636Z,90.00
2023-03-13T20:34:00.824Z,90.00
2023-03-13T20:36:28.217Z,90.00
2023-03-13T20:38:55.266Z,90.00
2023-03-13T20:41:25.175Z,90.30
2023-03-13T20:43:52.513Z,90.00
2023-03-13T20:46:20.097Z,90.00
2023-03-13T20:48:47.078Z,90.00
2023-03-13T20:51:14.418Z,89.90
2023-03-13T20:53:41.978Z,89.70
2023-03-13T20:56:09.445Z,89.50
2023-03-13T20:58:36.959Z,89.30
2023-03-13T21:01:14.072Z,89.10
2023-03-13T21:03:42.384Z,89.00
2023-03-13T21:06:19.276Z,89.10
2023-03-13T21:08:48.943Z,89.20
2023-03-13T21:11:17.548Z,89.30
2023-03-13T21:13:47.368Z,89.40
2023-03-13T21:16:14.730Z,89.60
2023-03-13T21:18:41.890Z,89.80
2023-03-13T21:21:17.242Z,90.00
2023-03-13T21:23:45.123Z,90.10
2023-03-13T21:26:12.695Z,90.20
2023-03-13T21:28:40.254Z,90.30
2023-03-13T21:31:08.376Z,90.40
2023-03-13T21:33:35.440Z,90.50
2023-03-13T21:36:02.472Z,90.50
2023-03-13T21:38:29.477Z,90.70
2023-03-13T21:40:56.416Z,90.60
2023-03-13T21:43:23.902Z,90.60
2023-03-13T21:45:50.772Z,90.70
2023-03-13T21:48:17.588Z,90.70
2023-03-13T21:50:51.143Z,90.60
2023-03-13T21:53:19.175Z,90.70
2023-03-13T21:55:49.026Z,90.70
2023-03-13T21:58:16.128Z,90.60
2023-03-13T22:00:45.618Z,90.70
2023-03-13T22:03:13.192Z,90.70
2023-03-13T22:05:43.946Z,90.60
2023-03-13T22:08:11.030Z,90.70
2023-03-13T22:10:38.694Z,90.70
2023-03-13T22:13:06.444Z,90.70
2023-03-13T22:15:33.412Z,90.70
2023-03-13T22:18:00.427Z,90.80
2023-03-13T22:20:27.922Z,90.80
2023-03-13T22:22:54.894Z,90.90
2023-03-13T22:25:21.768Z,90.90
2023-03-13T22:27:48.629Z,90.90
2023-03-13T22:30:15.434Z,91.00
2023-03-13T22:32:42.478Z,91.00
2023-03-13T22:35:10.101Z,91.00
2023-03-13T22:37:39.863Z,91.10
2023-03-13T22:40:06.964Z,91.00
2023-03-13T22:42:33.894Z,91.10
2023-03-13T22:45:00.727Z,91.10
2023-03-13T22:47:27.660Z,91.20
2023-03-13T22:49:55.105Z,91.20
2023-03-13T22:52:23.449Z,91.20
2023-03-13T22:54:50.450Z,91.30
2023-03-13T22:57:17.506Z,91.40
2023-03-13T22:59:44.515Z,91.50
2023-03-13T23:02:19.080Z,91.50
2023-03-13T23:04:46.115Z,91.60
2023-03-13T23:07:13.135Z,91.60
2023-03-13T23:09:40.052Z,91.70
2023-03-13T23:12:06.935Z,91.70
2023-03-13T23:14:33.982Z,91.60
2023-03-13T23:17:01.217Z,91.60
2023-03-13T23:19:28.162Z,91.50
2023-03-13T23:21:55.455Z,91.60
2023-03-13T23:24:22.482Z,91.60
2023-03-13T23:26:49.307Z,91.60
2023-03-13T23:29:16.681Z,91.60
2023-03-13T23:31:46.962Z,91.60
2023-03-13T23:34:25.923Z,91.60
2023-03-13T23:36:53.153Z,91.60
2023-03-13T23:39:20.115Z,91.80
2023-03-13T23:41:49.304Z,91.70
2023-03-13T23:44:16.264Z,91.70
2023-03-13T23:46:44.367Z,91.80
2023-03-13T23:49:14.255Z,91.80
2023-03-13T23:51:41.294Z,91.70
2023-03-13T23:54:08.238Z,91.80
2023-03-13T23:56:35.113Z,91.80
2023-03-13T23:59:24.660Z,91.80
